KFKS

Frankfort Dow Memorial Field Airport

Frankfort, Michigan, USA
METAR KFKS 202355Z AUTO 00000KT 10SM CLR 24/19 A2992 RMK AO2 T02350192 10264 20232
Observed Flight Rules
Aug-20 @ 23:55 UTC (15 minutes ago) Visual Flight Rules
Visibility Clouds
10 miles
  • Clear skies
Temperatures Readings
Current 24°C / 75°F
Dewpoint 19°C / 66°F
Humidity 74%
Altimeter 29.92" Hg
Pressure 1013 hPa
Elevation 193
METAR KFKS 202355Z AUTO 00000KT 10SM CLR 24/19 A2992 RMK AO2 T02350192 10264 20232
Observed Flight Rules
Aug-20 @ 23:55 UTC
(15 minutes ago)
VFR
Clouds
  • Clear skies
Temperature Dewpoint
24°C / 75°F 19°C / 66°F
Humidity Altimeter Pressure
74% 29.92" Hg 1013 hPa